Latest Weather Observations for Cairns Racecourse

IDQ60801

Issued at 10:05 pm EST Thursday 23 October 2014 (issued every 30 minutes, with the page automatically refreshed every 10 minutes)

About weather observations | Map of weather stations | Latest weather observations for QLD | Other Formats
Station Details ID: 031222 Name: CAIRNS RACECOURSE Lat: -16.95 Lon: 145.75 Height: 4.1 m
Data from the previous 72 hours. | See also: Recent months for locations in Queensland
Date/Time
EST
Temp
°C
App
Temp
°C
Dew
Point
Rel
Hum
%
Delta-T
°C
Wind Press
QNH
hPa
Press
MSL
hPa
Rain
since 9 am
mm
Dir
 
Spd
km/h
Gust
km/h
Spd
kts
Gust
kts
23/10:00pm 21.3 22.8 18.9 86 1.5 S 9 13 5 7 - - 2.8
23/09:30pm 21.4 23.0 19.1 87 1.5 SSW 9 15 5 8 - - 2.8
23/09:00pm 21.2 23.3 19.3 89 1.2 S 7 11 4 6 - - 2.8
23/08:30pm 21.0 22.7 19.3 90 1.1 S 9 13 5 7 - - 2.8
23/08:00pm 22.7 23.9 18.3 76 2.8 ESE 9 13 5 7 - - 0.0
23/07:30pm 23.0 23.1 17.5 71 3.4 S 13 19 7 10 - - 0.0
23/07:00pm 23.3 23.9 17.7 71 3.5 SE 11 17 6 9 - - 0.0
23/06:30pm 23.8 23.8 17.3 67 4.0 ESE 13 22 7 12 - - 0.0
23/06:00pm 24.2 23.0 17.0 64 4.4 ESE 19 30 10 16 - - 0.0
23/05:30pm 24.9 23.7 17.4 63 4.7 E 20 39 11 21 - - 0.0
23/05:00pm 25.2 23.1 17.1 60 5.0 E 24 35 13 19 - - 0.0
23/04:30pm 26.3 23.3 16.8 56 5.9 ESE 28 39 15 21 - - 0.0
23/04:00pm 26.7 24.1 17.7 57 5.7 E 28 39 15 21 - - 0.0
23/03:30pm 26.4 24.4 18.3 61 5.1 E 26 43 14 23 - - 0.0
23/03:17pm 27.0 24.6 18.3 59 5.5 E 28 46 15 25 - - 0.0
23/03:00pm 26.6 23.8 18.2 60 5.3 ESE 30 46 16 25 - - 0.0
23/02:30pm 27.0 23.9 18.8 60 5.3 E 33 52 18 28 - - 0.0
23/02:00pm 27.6 23.8 16.6 51 6.8 E 32 54 17 29 - - 0.0
23/01:36pm 27.6 22.8 15.6 48 7.3 ESE 35 54 19 29 - - 0.0
23/01:30pm 28.4 24.5 17.0 50 7.1 ESE 33 50 18 27 - - 0.0
23/01:20pm 27.9 24.8 17.4 52 6.6 ESE 30 50 16 27 - - 0.0
23/01:00pm 28.7 25.5 17.2 49 7.2 ESE 30 44 16 24 - - 0.0
23/12:30pm 29.0 26.3 16.5 46 7.8 ESE 26 37 14 20 - - 0.0
23/12:00pm 29.4 26.8 15.9 44 8.3 ESE 24 35 13 19 - - 0.0
23/11:30am 28.6 26.1 16.2 47 7.7 SE 24 35 13 19 - - 0.0
23/11:00am 29.3 27.3 16.5 46 8.0 SE 22 35 12 19 - - 0.0
23/10:30am 28.2 26.1 16.1 47 7.5 SE 22 30 12 16 - - 0.0
23/10:00am 27.6 25.5 16.2 49 7.0 SSE 22 32 12 17 - - 0.0
23/09:30am 27.1 25.1 16.4 52 6.6 SSE 22 32 12 17 - - 0.0
23/09:00am 26.2 23.9 16.7 56 5.9 SSE 24 39 13 21 - - 0.0
23/08:30am 25.6 23.6 16.4 56 5.7 SSE 22 35 12 19 - - 0.0
23/08:00am 24.2 22.6 17.4 65 4.2 SSE 22 32 12 17 - - 0.0
23/07:30am 23.6 23.1 17.8 70 3.6 S 17 24 9 13 - - 0.0
23/07:00am 22.2 22.1 16.9 72 3.2 S 13 20 7 11 - - 0.0
23/06:30am 21.2 21.8 17.6 80 2.2 S 11 19 6 10 - - 0.0
23/06:00am 19.4 21.8 17.0 86 1.5 SSW 0 0 0 0 - - 0.0
23/05:30am 20.3 22.0 17.1 82 1.9 ESE 4 6 2 3 - - 0.0
23/05:00am 20.9 22.4 17.5 81 2.1 ESE 6 7 3 4 - - 0.0
23/04:30am 21.2 22.0 17.4 79 2.3 SSE 9 11 5 6 - - 0.0
23/04:00am 21.3 22.1 17.3 78 2.5 S 9 13 5 7 - - 0.0
23/03:30am 21.2 21.2 17.2 78 2.4 S 13 17 7 9 - - 0.0
23/03:00am 21.6 21.8 17.6 78 2.5 S 13 19 7 10 - - 0.0
23/02:30am 21.6 21.9 17.8 79 2.4 S 13 19 7 10 - - 0.0
23/02:00am 21.5 21.9 18.1 81 2.1 S 13 19 7 10 - - 0.0
23/01:30am 21.6 22.1 18.4 82 2.0 S 13 17 7 9 - - 0.0
23/01:00am 21.7 22.2 18.3 81 2.1 S 13 19 7 10 - - 0.0
23/12:30am 21.9 22.8 18.3 80 2.2 S 11 17 6 9 - - 0.0
23/12:00am 21.9 22.8 18.3 80 2.2 S 11 19 6 10 - - 0.0
 
Date/Time
EST
Temp
°C
App
Temp
°C
Dew
Point
Rel
Hum
%
Delta-T
°C
Wind Press
QNH
hPa
Press
MSL
hPa
Rain
since 9 am
mm
Dir
 
Spd
km/h
Gust
km/h
Spd
kts
Gust
kts
22/11:30pm 22.2 23.2 18.6 80 2.3 S 11 17 6 9 - - 0.0
22/11:00pm 22.2 23.1 18.4 79 2.4 SSE 11 15 6 8 - - 0.0
22/10:30pm 22.2 23.1 18.4 79 2.4 S 11 17 6 9 - - 0.0
22/10:00pm 22.5 23.7 18.3 77 2.6 SSE 9 15 5 8 - - 0.0
22/09:30pm 22.6 23.1 18.4 77 2.6 SSE 13 17 7 9 - - 0.0
22/09:00pm 22.7 23.4 18.0 75 2.9 S 11 17 6 9 - - 0.0
22/08:30pm 23.3 22.6 18.2 73 3.2 SE 19 26 10 14 - - 0.0
22/08:00pm 23.3 23.1 17.7 71 3.5 SE 15 22 8 12 - - 0.0
22/07:30pm 23.3 23.1 17.7 71 3.5 SE 15 22 8 12 - - 0.0
22/07:00pm 23.5 23.3 17.5 69 3.7 SSE 15 20 8 11 - - 0.0
22/06:30pm 24.0 23.5 16.8 64 4.4 SSE 15 22 8 12 - - 0.0
22/06:00pm 24.7 23.4 16.7 61 4.9 SE 19 30 10 16 - - 0.0
22/05:30pm 25.7 24.3 16.5 56 5.7 ESE 19 28 10 15 - - 0.0
22/05:00pm 26.2 23.6 15.9 53 6.3 SE 24 41 13 22 - - 0.0
22/04:30pm 26.7 23.3 15.7 51 6.7 ESE 28 41 15 22 - - 0.0
22/04:00pm 26.7 23.5 15.4 50 6.9 ESE 26 39 14 21 - - 0.0
22/03:30pm 27.5 25.1 16.5 51 6.8 ESE 24 43 13 23 - - 0.0
22/03:12pm 27.7 24.5 16.3 49 7.0 ESE 28 46 15 25 - - 0.0
22/03:00pm 27.0 22.7 15.4 49 7.1 ESE 32 46 17 25 - - 0.0
22/02:30pm 28.1 25.4 15.7 46 7.6 ESE 24 35 13 19 - - 0.0
22/02:00pm 28.6 25.2 14.8 43 8.4 SE 26 41 14 22 - - 0.0
22/01:31pm 28.9 24.8 13.9 39 9.0 SE 28 46 15 25 - - 0.0
22/01:30pm 28.7 24.7 14.1 40 8.8 SE 28 41 15 22 - - 0.0
22/01:00pm 28.4 23.5 12.7 38 9.2 SE 30 44 16 24 - - 0.0
22/12:30pm 28.0 22.7 12.4 38 9.1 ESE 32 44 17 24 - - 0.0
22/12:00pm 27.9 23.6 14.5 44 8.1 ESE 30 48 16 26 - - 0.0
22/11:58am 27.7 23.7 14.0 43 8.2 ESE 28 48 15 26 - - 0.0
22/11:30am 28.5 24.5 14.0 41 8.7 SE 28 41 15 22 - - 0.0
22/11:00am 28.1 24.7 14.7 44 8.1 SE 26 39 14 21 - - 0.0
22/10:30am 26.1 24.3 16.1 54 6.1 SSE 20 30 11 16 - - 0.0
22/10:00am 27.2 26.4 17.9 56 5.9 SSE 19 30 10 16 - - 0.0
22/09:30am 26.0 25.5 17.9 61 5.1 SSE 17 26 9 14 - - 0.0
22/09:00am 25.5 25.0 17.9 63 4.8 S 17 28 9 15 - - 2.4
22/08:30am 24.8 24.5 18.3 67 4.1 S 17 28 9 15 - - 2.4
22/08:00am 24.0 23.8 17.7 68 3.9 S 15 22 8 12 - - 2.4
22/07:30am 22.7 22.4 17.4 72 3.3 S 15 20 8 11 - - 2.4
22/07:00am 22.3 22.3 18.1 77 2.6 S 15 20 8 11 - - 2.4
22/06:30am 21.2 21.8 17.6 80 2.2 SSE 11 17 6 9 - - 2.4
22/06:00am 20.2 21.4 16.8 81 2.1 SE 6 13 3 7 - - 2.4
22/05:30am 20.4 20.8 16.4 78 2.4 S 9 17 5 9 - - 2.4
22/05:00am 20.7 20.9 16.7 78 2.4 S 11 15 6 8 - - 2.4
22/04:30am 20.9 20.8 16.9 78 2.4 S 13 19 7 10 - - 2.4
22/04:00am 21.1 21.3 17.7 81 2.1 S 13 19 7 10 - - 2.4
22/03:30am 20.8 21.0 17.6 82 2.0 S 13 17 7 9 - - 2.4
22/03:00am 20.7 21.7 17.7 83 1.8 S 9 17 5 9 - - 2.4
22/02:30am 21.2 21.4 17.6 80 2.2 S 13 19 7 10 - - 2.4
22/02:00am 21.5 22.1 17.7 79 2.3 S 11 20 6 11 - - 2.4
22/01:30am 21.5 22.6 17.9 80 2.2 S 9 15 5 8 - - 2.4
22/01:00am 21.1 22.2 17.9 82 2.0 S 9 13 5 7 - - 2.4
22/12:30am 20.8 21.4 17.8 83 1.9 S 11 15 6 8 - - 2.4
22/12:00am 21.2 21.5 18.0 82 2.0 S 13 17 7 9 - - 2.4
 
Date/Time
EST
Temp
°C
App
Temp
°C
Dew
Point
Rel
Hum
%
Delta-T
°C
Wind Press
QNH
hPa
Press
MSL
hPa
Rain
since 9 am
mm
Dir
 
Spd
km/h
Gust
km/h
Spd
kts
Gust
kts
21/11:30pm 21.1 21.2 18.3 84 1.7 S 15 24 8 13 - - 2.4
21/11:00pm 21.2 21.5 18.8 86 1.5 S 15 26 8 14 - - 2.4
21/10:30pm 21.1 21.7 18.7 86 1.5 SSE 13 22 7 12 - - 1.4
21/10:00pm 22.0 21.2 18.0 78 2.5 S 19 28 10 15 - - 0.2
21/09:30pm 22.1 21.8 18.3 79 2.4 S 17 24 9 13 - - 0.0
21/09:00pm 22.2 21.9 18.2 78 2.5 S 17 22 9 12 - - 0.0
21/08:30pm 21.9 21.9 18.1 79 2.4 S 15 24 8 13 - - 0.0
21/08:00pm 21.5 22.5 18.7 84 1.8 S 11 15 6 8 - - 0.0
21/07:30pm 21.5 21.0 18.7 84 1.8 S 19 26 10 14 - - 0.0
21/07:00pm 22.0 22.5 19.2 84 1.8 S 15 24 8 13 - - 0.0
21/06:30pm 22.0 22.1 19.2 84 1.8 S 17 26 9 14 - - 0.0
21/06:00pm 23.2 23.1 18.7 76 2.8 S 17 26 9 14 - - 0.0
21/05:30pm 23.8 23.0 18.4 72 3.4 S 20 30 11 16 - - 0.0
21/05:00pm 24.3 24.9 18.5 70 3.7 SE 13 20 7 11 - - 0.0
21/04:30pm 24.2 23.7 18.6 71 3.5 S 19 32 10 17 - - 0.0
21/04:00pm 25.0 23.7 18.2 66 4.3 S 22 33 12 18 - - 0.0
21/03:30pm 25.8 23.6 16.9 58 5.5 ESE 24 37 13 20 - - 0.0
21/03:01pm 27.3 25.1 18.6 59 5.6 ESE 28 46 15 25 - - 0.0
21/03:00pm 27.2 25.4 18.8 60 5.4 ESE 26 46 14 25 - - 0.0
21/02:30pm 26.0 22.5 16.5 55 5.9 ESE 30 43 16 23 - - 0.0
21/02:00pm 26.2 24.2 17.3 58 5.6 SE 24 35 13 19 - - 0.0
21/01:30pm 27.9 25.5 17.4 52 6.6 SE 26 39 14 21 - - 0.0
21/01:00pm 28.0 25.4 16.9 51 6.9 SE 26 39 14 21 - - 0.0
21/12:39pm 27.3 24.6 17.5 55 6.2 ESE 28 46 15 25 - - 0.0
21/12:30pm 28.8 27.4 18.9 55 6.4 ESE 24 39 13 21 - - 0.0
21/12:00pm 27.7 24.9 17.2 52 6.6 ESE 28 37 15 20 - - 0.0
21/11:42am 27.6 24.5 16.6 51 6.8 ESE 28 50 15 27 - - 0.0
21/11:30am 27.7 25.7 18.4 57 5.9 ESE 26 43 14 23 - - 0.0
21/11:00am 27.9 24.8 16.5 50 7.1 ESE 28 43 15 23 - - 0.0
21/10:30am 27.2 24.7 17.1 54 6.3 ESE 26 37 14 20 - - 0.0
21/10:00am 26.0 24.8 17.6 60 5.3 ESE 20 30 11 16 - - 0.0
21/09:30am 24.8 24.7 18.7 69 3.9 SSE 17 20 9 11 - - 0.0
21/09:00am 24.4 24.9 18.3 69 3.8 SSE 13 20 7 11 - - 7.2
21/08:30am 23.7 22.8 17.7 69 3.7 S 19 28 10 15 - - 7.2
21/08:00am 23.7 24.1 18.1 71 3.5 SSE 13 20 7 11 - - 7.2
21/07:30am 22.0 22.6 17.6 76 2.7 S 11 20 6 11 - - 7.2
21/07:00am 21.3 21.6 17.1 77 2.6 S 11 17 6 9 - - 7.2
21/06:30am 20.5 20.8 17.1 81 2.1 S 11 15 6 8 - - 7.2
21/06:00am 20.5 20.5 17.1 81 2.1 S 13 17 7 9 - - 7.2
21/05:30am 20.8 20.5 17.4 81 2.1 S 15 20 8 11 - - 7.2
21/05:00am 19.2 21.0 17.5 90 1.0 S 4 11 2 6 - - 7.2
21/04:30am 19.3 21.7 18.0 92 0.8 ESE 2 9 1 5 - - 7.2
21/04:00am 19.2 21.9 17.7 91 0.9 CALM 0 0 0 0 - - 7.2
21/03:30am 20.0 22.1 18.0 88 1.2 ENE 4 7 2 4 - - 7.2
21/03:00am 21.0 20.8 16.8 77 2.6 SE 13 28 7 15 - - 6.8
21/02:30am 20.8 22.0 16.8 78 2.4 SSE 6 9 3 5 - - 6.8
21/02:00am 21.2 21.5 17.0 77 2.6 S 11 13 6 7 - - 6.8
21/01:30am 21.1 21.8 17.1 78 2.4 S 9 13 5 7 - - 6.8
21/01:00am 20.9 21.2 17.1 79 2.3 S 11 15 6 8 - - 6.8
21/12:30am 21.2 20.9 17.4 79 2.3 S 15 20 8 11 - - 6.8
21/12:00am 21.2 21.0 17.6 80 2.2 S 15 20 8 11 - - 6.8
 
Date/Time
EST
Temp
°C
App
Temp
°C
Dew
Point
Rel
Hum
%
Delta-T
°C
Wind Press
QNH
hPa
Press
MSL
hPa
Rain
since 9 am
mm
Dir
 
Spd
km/h
Gust
km/h
Spd
kts
Gust
kts
20/11:30pm 21.3 21.3 18.1 82 2.0 S 15 19 8 10 - - 6.8
20/11:00pm 21.0 21.5 18.4 85 1.6 S 13 17 7 9 - - 6.8
20/10:30pm 21.1 22.0 18.5 85 1.6 S 11 17 6 9 - - 6.8

Other Formats:

Comma delimited format used in spreadsheet applications
http://www.bom.gov.au/fwo/IDQ60801/IDQ60801.94288.axf

JavaScript Object Notation format (JSON) in row-major order
http://www.bom.gov.au/fwo/IDQ60801/IDQ60801.94288.json